createdAt,value
2022-10-13T00:01:57.157Z,44.47
2022-10-13T00:04:26.724Z,41.05
2022-10-13T00:07:00.669Z,40.05
2022-10-13T00:09:44.576Z,37.42
2022-10-13T00:12:14.824Z,39.63
2022-10-13T00:14:45.832Z,41.10
2022-10-13T00:17:14.880Z,39.78
2022-10-13T00:19:49.618Z,40.63
2022-10-13T00:22:21.924Z,36.85
2022-10-13T00:24:56.046Z,34.40
2022-10-13T00:27:26.355Z,34.95
2022-10-13T00:29:58.803Z,37.47
2022-10-13T00:32:28.963Z,46.25
2022-10-13T00:34:58.891Z,47.25
2022-10-13T00:37:27.971Z,38.38
2022-10-13T00:39:59.361Z,35.78
2022-10-13T00:42:29.873Z,33.53
2022-10-13T00:45:14.318Z,36.30
2022-10-13T00:47:47.557Z,36.38
2022-10-13T00:50:35.539Z,36.08
2022-10-13T00:53:08.741Z,36.70
2022-10-13T00:55:48.240Z,36.33
2022-10-13T00:58:24.191Z,36.33
2022-10-13T01:03:23.571Z,38.47
2022-10-13T01:06:05.451Z,38.85
2022-10-13T01:08:37.176Z,36.03
2022-10-13T01:11:26.021Z,37.58
2022-10-13T01:14:22.657Z,36.90
2022-10-13T01:17:27.217Z,38.45
2022-10-13T01:20:27.080Z,37.38
2022-10-13T01:23:26.565Z,43.65
2022-10-13T01:26:32.599Z,43.28
2022-10-13T01:29:29.182Z,41.78
2022-10-13T01:32:29.766Z,37.17
2022-10-13T01:35:07.619Z,36.53
2022-10-13T01:37:55.321Z,37.45
2022-10-13T01:40:55.080Z,38.08
2022-10-13T01:43:33.006Z,36.35
2022-10-13T01:46:18.465Z,34.53
2022-10-13T01:48:56.120Z,35.05
2022-10-13T01:51:33.307Z,36.10
2022-10-13T01:54:00.935Z,36.70
2022-10-13T01:56:37.908Z,35.72
2022-10-13T01:59:13.380Z,35.83
2022-10-13T02:01:57.120Z,36.90
2022-10-13T02:04:53.497Z,36.92
2022-10-13T02:07:49.707Z,37.60
2022-10-13T02:10:33.878Z,36.47
2022-10-13T02:13:05.786Z,36.90
2022-10-13T02:15:55.271Z,47.42
2022-10-13T02:18:36.444Z,40.50
2022-10-13T02:21:11.919Z,34.92
2022-10-13T02:23:46.226Z,40.45
2022-10-13T02:26:21.980Z,43.40
2022-10-13T02:28:58.292Z,35.38
2022-10-13T02:31:38.601Z,34.15
2022-10-13T02:34:11.899Z,35.08
2022-10-13T02:36:46.484Z,37.65
2022-10-13T02:39:19.253Z,36.03
2022-10-13T02:41:50.451Z,38.07
2022-10-13T02:44:23.510Z,38.45
2022-10-13T02:46:58.107Z,40.22
2022-10-13T02:49:31.593Z,39.00
2022-10-13T02:52:02.483Z,36.78
2022-10-13T02:54:33.966Z,36.25
2022-10-13T02:57:03.625Z,35.35
2022-10-13T02:59:35.746Z,38.00
2022-10-13T03:02:08.499Z,39.17
2022-10-13T03:04:43.799Z,38.13
2022-10-13T03:09:54.460Z,38.70
2022-10-13T03:12:24.965Z,37.70
2022-10-13T03:14:54.224Z,37.10
2022-10-13T03:17:25.274Z,38.25
2022-10-13T03:19:55.086Z,38.63
2022-10-13T03:22:24.803Z,38.63
2022-10-13T03:24:53.568Z,38.90
2022-10-13T03:27:24.395Z,39.17
2022-10-13T03:29:54.253Z,38.42
2022-10-13T03:32:23.390Z,39.65
2022-10-13T03:34:52.996Z,37.15
2022-10-13T03:37:27.536Z,37.40
2022-10-13T03:40:00.171Z,36.17
2022-10-13T03:42:37.223Z,34.85
2022-10-13T03:45:07.170Z,34.45
2022-10-13T03:47:40.862Z,34.10
2022-10-13T03:50:13.024Z,34.97
2022-10-13T03:52:44.595Z,34.88
2022-10-13T03:55:12.525Z,35.60
2022-10-13T03:57:46.528Z,32.75
2022-10-13T04:00:21.556Z,36.25
2022-10-13T04:02:54.362Z,35.13
2022-10-13T04:05:30.272Z,34.95
2022-10-13T04:07:59.529Z,34.35
2022-10-13T04:10:28.037Z,34.58
2022-10-13T04:12:56.721Z,33.03
2022-10-13T04:15:26.839Z,33.38
2022-10-13T04:17:57.100Z,32.08
2022-10-13T04:20:31.496Z,33.78
2022-10-13T04:23:00.437Z,36.65
2022-10-13T04:25:32.600Z,38.63
2022-10-13T04:28:07.346Z,38.22
2022-10-13T04:30:49.287Z,40.95
2022-10-13T04:33:18.783Z,40.85
2022-10-13T04:35:53.685Z,38.58
2022-10-13T04:38:28.762Z,41.70
2022-10-13T04:40:59.804Z,39.67
2022-10-13T04:43:32.290Z,38.15
2022-10-13T04:46:13.490Z,37.53
2022-10-13T04:48:44.519Z,37.80
2022-10-13T04:51:19.306Z,43.85
2022-10-13T04:53:49.527Z,43.70
2022-10-13T04:56:23.769Z,43.10
2022-10-13T04:58:59.489Z,41.67
2022-10-13T05:01:31.705Z,45.13
2022-10-13T05:07:05.195Z,50.60
2022-10-13T05:09:33.696Z,46.85
2022-10-13T05:12:09.648Z,46.97
2022-10-13T05:14:39.347Z,48.08
2022-10-13T05:17:09.720Z,47.70
2022-10-13T05:19:40.494Z,48.08
2022-10-13T05:22:13.009Z,47.08
2022-10-13T05:24:48.467Z,50.42
2022-10-13T05:29:59.080Z,51.28
2022-10-13T05:32:30.643Z,50.47
2022-10-13T05:34:59.011Z,51.08
2022-10-13T05:37:34.255Z,52.78
2022-10-13T05:40:02.952Z,52.92
2022-10-13T05:42:36.135Z,53.33
2022-10-13T05:45:15.040Z,52.03
2022-10-13T05:47:46.390Z,52.28
2022-10-13T05:50:21.441Z,51.13
2022-10-13T05:52:53.206Z,55.20
2022-10-13T05:55:26.092Z,54.17
2022-10-13T05:57:58.153Z,54.47
2022-10-13T06:00:31.182Z,58.17
2022-10-13T06:03:09.849Z,56.88
2022-10-13T06:05:48.016Z,57.47
2022-10-13T06:08:23.276Z,56.05
2022-10-13T06:10:53.032Z,55.58
2022-10-13T06:13:21.818Z,56.35
2022-10-13T06:15:57.724Z,54.97
2022-10-13T06:18:38.302Z,54.45
2022-10-13T06:21:07.984Z,53.55
2022-10-13T06:23:36.302Z,51.08
2022-10-13T06:26:11.776Z,54.63
2022-10-13T06:28:47.625Z,58.40
2022-10-13T06:31:26.587Z,69.63
2022-10-13T06:34:01.640Z,63.20
2022-10-13T06:36:30.611Z,69.57
2022-10-13T06:38:59.569Z,66.15
2022-10-13T06:41:29.620Z,67.00
2022-10-13T06:44:15.658Z,62.70
2022-10-13T06:49:30.422Z,67.30
2022-10-13T06:52:05.409Z,67.47
2022-10-13T06:54:39.800Z,78.72
2022-10-13T06:57:12.800Z,74.35
2022-10-13T06:59:46.411Z,77.50
2022-10-13T07:02:16.078Z,72.50
2022-10-13T07:04:46.837Z,74.80
2022-10-13T07:07:18.134Z,79.35
2022-10-13T07:09:48.206Z,74.95
2022-10-13T07:12:19.354Z,72.93
2022-10-13T07:14:52.500Z,79.85
2022-10-13T07:17:23.829Z,83.45
2022-10-13T07:19:57.827Z,81.30
2022-10-13T07:22:33.477Z,75.88
2022-10-13T07:25:03.631Z,76.82
2022-10-13T07:27:36.441Z,72.22
2022-10-13T07:30:07.378Z,77.75
2022-10-13T07:32:44.785Z,81.32
2022-10-13T07:35:15.621Z,84.88
2022-10-13T07:37:49.456Z,78.75
2022-10-13T07:40:19.579Z,81.70
2022-10-13T07:42:52.008Z,80.97
2022-10-13T07:45:21.596Z,75.85
2022-10-13T07:47:53.428Z,80.55
2022-10-13T07:50:24.805Z,82.93
2022-10-13T07:53:01.244Z,78.30
2022-10-13T07:55:35.471Z,82.20
2022-10-13T07:58:12.590Z,82.93
2022-10-13T08:00:44.065Z,84.30
2022-10-13T08:03:15.075Z,78.47
2022-10-13T08:05:46.326Z,78.70
2022-10-13T08:08:21.490Z,75.28
2022-10-13T08:10:50.954Z,76.60
2022-10-13T08:13:23.415Z,75.28
2022-10-13T08:15:54.696Z,82.60
2022-10-13T08:18:32.667Z,71.55
2022-10-13T08:21:33.070Z,73.30
2022-10-13T08:23:53.535Z,70.38
2022-10-13T08:26:32.410Z,67.68
2022-10-13T08:29:22.310Z,74.10
2022-10-13T08:31:52.917Z,70.22
2022-10-13T08:34:28.993Z,73.43
2022-10-13T08:37:00.796Z,75.93
2022-10-13T08:39:31.340Z,67.13
2022-10-13T08:42:04.349Z,65.20
2022-10-13T08:50:36.596Z,64.00
2022-10-13T08:53:34.521Z,61.05
2022-10-13T08:56:26.843Z,68.18
2022-10-13T08:58:59.256Z,59.22
2022-10-13T09:01:38.173Z,61.50
2022-10-13T09:04:41.550Z,62.30
2022-10-13T09:07:29.913Z,64.43
2022-10-13T09:10:00.701Z,72.05
2022-10-13T09:12:34.548Z,64.85
2022-10-13T09:15:11.386Z,65.13
2022-10-13T09:17:41.648Z,60.47
2022-10-13T09:20:29.385Z,64.88
2022-10-13T09:23:19.488Z,59.92
2022-10-13T09:25:54.258Z,62.25
2022-10-13T09:28:30.904Z,66.80
2022-10-13T09:31:22.881Z,64.15
2022-10-13T09:34:22.518Z,67.50
2022-10-13T09:36:59.961Z,65.70
2022-10-13T09:39:30.280Z,68.60
2022-10-13T09:42:24.828Z,70.10
2022-10-13T09:45:17.424Z,67.90
2022-10-13T09:47:57.665Z,64.95
2022-10-13T09:50:40.352Z,65.20
2022-10-13T09:53:31.838Z,67.45
2022-10-13T09:56:30.106Z,66.75
2022-10-13T09:59:31.459Z,65.43
2022-10-13T10:02:26.536Z,64.57
2022-10-13T10:05:48.599Z,65.25
2022-10-13T10:08:33.783Z,60.13
2022-10-13T10:11:21.969Z,64.30
2022-10-13T10:13:54.714Z,56.72
2022-10-13T10:16:40.356Z,57.72
2022-10-13T10:19:39.495Z,56.15
2022-10-13T10:22:36.679Z,60.55
2022-10-13T10:25:27.275Z,55.28
2022-10-13T10:28:26.754Z,55.75
2022-10-13T10:31:00.536Z,57.75
2022-10-13T10:33:53.889Z,55.65
2022-10-13T10:36:28.793Z,54.80
2022-10-13T10:39:21.695Z,49.35
2022-10-13T10:42:26.400Z,52.83
2022-10-13T10:44:59.795Z,54.47
2022-10-13T10:47:45.598Z,49.60
2022-10-13T10:50:21.485Z,52.78
2022-10-13T10:53:13.127Z,52.33
2022-10-13T10:55:55.700Z,45.15
2022-10-13T10:59:08.203Z,53.13
2022-10-13T11:02:17.467Z,55.92
2022-10-13T11:04:51.046Z,54.50
2022-10-13T11:07:31.221Z,51.80
2022-10-13T11:10:10.507Z,53.58
2022-10-13T11:13:08.078Z,46.10
2022-10-13T11:15:51.169Z,46.15
2022-10-13T11:19:12.419Z,35.63
2022-10-13T11:22:07.911Z,34.38
2022-10-13T11:24:46.869Z,39.13
2022-10-13T11:27:37.365Z,28.13
2022-10-13T11:30:44.980Z,28.00
2022-10-13T11:33:49.756Z,22.88
2022-10-13T11:36:46.767Z,22.63
2022-10-13T11:42:12.453Z,26.60
2022-10-13T11:44:58.718Z,24.95
2022-10-13T11:47:54.835Z,23.67
2022-10-13T11:50:48.900Z,21.58
2022-10-13T11:53:29.874Z,21.33
2022-10-13T11:56:21.107Z,20.38
2022-10-13T11:58:49.900Z,19.85
2022-10-13T12:01:20.581Z,19.60
2022-10-13T12:03:53.262Z,16.80
2022-10-13T12:06:50.077Z,20.45
2022-10-13T12:09:24.807Z,18.50
2022-10-13T12:12:12.312Z,19.35
2022-10-13T12:14:48.936Z,18.00
2022-10-13T12:17:28.309Z,18.48
2022-10-13T12:20:28.452Z,16.60
2022-10-13T12:22:58.872Z,17.08
2022-10-13T12:25:31.845Z,17.85
2022-10-13T12:28:05.796Z,16.45
2022-10-13T12:30:38.576Z,17.42
2022-10-13T12:33:36.567Z,17.60
2022-10-13T12:36:17.769Z,17.02
2022-10-13T12:38:57.796Z,19.10
2022-10-13T12:41:34.623Z,16.77
2022-10-13T12:44:06.763Z,16.55
2022-10-13T12:46:56.434Z,15.75
2022-10-13T12:49:50.585Z,15.80
2022-10-13T12:52:30.624Z,17.08
2022-10-13T12:55:06.080Z,17.33
2022-10-13T12:57:44.280Z,15.13
2022-10-13T13:00:34.203Z,14.82
2022-10-13T13:03:23.534Z,15.00
2022-10-13T13:06:19.079Z,16.35
2022-10-13T13:09:29.016Z,13.52
2022-10-13T13:12:27.429Z,15.65
2022-10-13T13:14:58.182Z,13.15
2022-10-13T13:20:33.424Z,12.70
2022-10-13T13:23:05.877Z,12.60
2022-10-13T13:25:39.531Z,12.63
2022-10-13T13:28:16.478Z,12.27
2022-10-13T13:30:47.566Z,14.18
2022-10-13T13:33:24.256Z,11.85
2022-10-13T13:35:58.770Z,11.82
2022-10-13T13:38:29.823Z,11.65
2022-10-13T13:41:03.094Z,10.75
2022-10-13T13:43:34.746Z,11.80
2022-10-13T13:46:07.696Z,12.52
2022-10-13T13:48:38.781Z,12.00
2022-10-13T13:51:13.076Z,12.52
2022-10-13T13:53:46.458Z,14.50
2022-10-13T13:56:18.753Z,13.23
2022-10-13T13:58:58.590Z,13.93
2022-10-13T14:01:29.153Z,12.88
2022-10-13T14:04:00.019Z,13.40
2022-10-13T14:06:36.801Z,13.52
2022-10-13T14:09:09.015Z,13.90
2022-10-13T14:11:39.217Z,15.45
2022-10-13T14:14:13.079Z,15.50
2022-10-13T14:16:42.460Z,12.90
2022-10-13T14:19:11.345Z,11.20
2022-10-13T14:21:41.983Z,11.20
2022-10-13T14:24:16.633Z,11.73
2022-10-13T14:26:46.768Z,11.13
2022-10-13T14:29:19.434Z,9.93
2022-10-13T14:31:56.287Z,9.93
2022-10-13T14:37:02.856Z,11.32
2022-10-13T14:39:32.821Z,10.23
2022-10-13T14:42:02.398Z,10.63
2022-10-13T14:44:32.063Z,10.77
2022-10-13T14:47:07.411Z,10.70
2022-10-13T14:49:39.890Z,10.48
2022-10-13T14:52:10.543Z,10.93
2022-10-13T14:54:45.084Z,11.50
2022-10-13T14:57:19.536Z,10.70
2022-10-13T14:59:52.588Z,10.63
2022-10-13T15:02:20.812Z,11.32
2022-10-13T15:04:55.820Z,11.45
2022-10-13T15:07:36.842Z,11.32
2022-10-13T15:10:11.608Z,12.88
2022-10-13T15:12:43.365Z,12.98
2022-10-13T15:15:17.907Z,12.68
2022-10-13T15:17:49.936Z,11.68
2022-10-13T15:20:17.600Z,11.43
2022-10-13T15:22:49.043Z,12.45
2022-10-13T15:25:27.848Z,13.60
2022-10-13T15:27:59.390Z,13.95
2022-10-13T15:30:29.276Z,13.82
2022-10-13T15:33:02.301Z,13.02
2022-10-13T15:35:34.626Z,12.77
2022-10-13T15:38:05.280Z,13.32
2022-10-13T15:40:38.438Z,13.45
2022-10-13T15:43:20.499Z,13.27
2022-10-13T15:46:04.244Z,13.35
2022-10-13T15:48:34.876Z,16.03
2022-10-13T15:51:16.152Z,15.88
2022-10-13T15:53:51.689Z,15.55
2022-10-13T15:56:24.346Z,16.55
2022-10-13T15:58:58.891Z,14.93
2022-10-13T16:01:33.200Z,15.57
2022-10-13T16:04:05.887Z,15.25
2022-10-13T16:06:40.448Z,15.52
2022-10-13T16:09:13.141Z,15.32
2022-10-13T16:11:41.946Z,14.70
2022-10-13T16:14:13.703Z,14.20
2022-10-13T16:16:43.012Z,15.60
2022-10-13T16:19:12.744Z,16.50
2022-10-13T16:21:41.937Z,15.43
2022-10-13T16:24:10.487Z,14.88
2022-10-13T16:26:41.497Z,16.38
2022-10-13T16:29:12.122Z,16.10
2022-10-13T16:31:42.189Z,18.00
2022-10-13T16:34:14.916Z,17.27
2022-10-13T16:36:47.061Z,18.10
2022-10-13T16:39:19.090Z,17.08
2022-10-13T16:41:47.924Z,18.98
2022-10-13T16:44:18.378Z,20.77
2022-10-13T16:46:47.094Z,19.10
2022-10-13T16:49:20.675Z,18.77
2022-10-13T16:51:53.435Z,18.83
2022-10-13T16:54:25.936Z,17.75
2022-10-13T16:56:54.271Z,17.35
2022-10-13T16:59:28.253Z,20.00
2022-10-13T17:02:03.491Z,19.75
2022-10-13T17:07:07.562Z,19.98
2022-10-13T17:09:38.214Z,17.38
2022-10-13T17:12:09.849Z,17.67
2022-10-13T17:14:39.892Z,18.17
2022-10-13T17:17:09.338Z,17.98
2022-10-13T17:19:40.111Z,18.30
2022-10-13T17:22:13.002Z,18.48
2022-10-13T17:24:48.021Z,17.65
2022-10-13T17:29:46.753Z,18.25
2022-10-13T17:32:18.786Z,19.08
2022-10-13T17:34:49.104Z,17.40
2022-10-13T17:39:54.477Z,17.67
2022-10-13T17:42:24.044Z,19.10
2022-10-13T17:44:53.291Z,16.77
2022-10-13T17:47:24.448Z,18.55
2022-10-13T17:49:59.448Z,17.80
2022-10-13T17:52:33.464Z,17.00
2022-10-13T17:55:08.537Z,17.40
2022-10-13T17:57:46.141Z,17.08
2022-10-13T18:00:28.580Z,16.27
2022-10-13T18:03:05.707Z,23.92
2022-10-13T18:05:35.646Z,16.15
2022-10-13T18:08:17.325Z,17.95
2022-10-13T18:11:07.158Z,16.63
2022-10-13T18:13:37.338Z,16.80
2022-10-13T18:16:33.044Z,20.50
2022-10-13T18:19:07.814Z,14.27
2022-10-13T18:21:38.321Z,14.82
2022-10-13T18:24:12.716Z,14.93
2022-10-13T18:26:43.201Z,14.17
2022-10-13T18:29:13.618Z,15.55
2022-10-13T18:31:45.156Z,14.60
2022-10-13T18:34:18.102Z,13.98
2022-10-13T18:36:53.118Z,17.35
2022-10-13T18:39:29.427Z,17.83
2022-10-13T18:41:59.903Z,19.13
2022-10-13T18:44:40.083Z,15.05
2022-10-13T18:47:16.107Z,19.63
2022-10-13T18:49:45.886Z,18.70
2022-10-13T18:52:15.894Z,16.40
2022-10-13T18:54:46.745Z,22.25
2022-10-13T18:57:22.914Z,16.30
2022-10-13T18:59:57.143Z,17.27
2022-10-13T19:02:34.008Z,21.38
2022-10-13T19:05:10.292Z,17.70
2022-10-13T19:07:46.182Z,16.35
2022-10-13T19:10:16.375Z,17.77
2022-10-13T19:12:49.431Z,15.80
2022-10-13T19:15:21.590Z,16.65
2022-10-13T19:17:52.119Z,15.55
2022-10-13T19:20:28.176Z,15.02
2022-10-13T19:23:14.417Z,20.42
2022-10-13T19:25:48.120Z,18.80
2022-10-13T19:28:22.187Z,19.88
2022-10-13T19:31:00.914Z,16.73
2022-10-13T19:33:36.481Z,16.70
2022-10-13T19:36:14.967Z,16.17
2022-10-13T19:38:46.214Z,16.60
2022-10-13T19:41:17.239Z,13.55
2022-10-13T19:43:48.395Z,15.80
2022-10-13T19:46:30.721Z,13.68
2022-10-13T19:49:02.652Z,14.57
2022-10-13T19:51:36.608Z,14.13
2022-10-13T19:54:08.976Z,15.55
2022-10-13T19:56:40.145Z,14.18
2022-10-13T19:59:09.288Z,14.93
2022-10-13T20:01:41.638Z,13.57
2022-10-13T20:04:17.179Z,13.57
2022-10-13T20:06:56.272Z,12.75
2022-10-13T20:09:26.553Z,13.88
2022-10-13T20:11:57.839Z,14.43
2022-10-13T20:14:30.964Z,14.35
2022-10-13T20:17:01.519Z,14.07
2022-10-13T20:19:32.992Z,14.77
2022-10-13T20:22:04.429Z,13.95
2022-10-13T20:24:36.069Z,13.65
2022-10-13T20:27:08.196Z,14.57
2022-10-13T20:29:36.989Z,13.93
2022-10-13T20:32:06.510Z,13.80
2022-10-13T20:34:39.607Z,11.95
2022-10-13T20:37:09.921Z,14.13
2022-10-13T20:39:42.207Z,14.80
2022-10-13T20:42:13.195Z,14.60
2022-10-13T20:44:45.653Z,13.63
2022-10-13T20:47:17.717Z,13.98
2022-10-13T20:49:50.392Z,13.88
2022-10-13T20:52:29.733Z,14.15
2022-10-13T20:55:02.607Z,16.73
2022-10-13T20:57:38.454Z,14.93
2022-10-13T21:00:08.994Z,14.35
2022-10-13T21:02:41.658Z,14.40
2022-10-13T21:05:12.759Z,14.70
2022-10-13T21:07:42.935Z,15.07
2022-10-13T21:10:15.542Z,16.48
2022-10-13T21:12:58.772Z,14.75
2022-10-13T21:15:30.149Z,13.18
2022-10-13T21:18:01.188Z,14.88
2022-10-13T21:20:34.241Z,12.85
2022-10-13T21:23:06.259Z,13.50
2022-10-13T21:25:37.144Z,13.35
2022-10-13T21:28:06.704Z,13.15
2022-10-13T21:30:38.282Z,13.05
2022-10-13T21:33:11.145Z,14.57
2022-10-13T21:35:40.460Z,12.27
2022-10-13T21:38:11.966Z,12.88
2022-10-13T21:40:45.583Z,14.20
2022-10-13T21:43:17.285Z,12.93
2022-10-13T21:45:52.294Z,16.17
2022-10-13T21:48:27.083Z,18.10
2022-10-13T21:50:57.875Z,13.88
2022-10-13T21:53:31.500Z,13.52
2022-10-13T21:56:24.943Z,11.45
2022-10-13T21:58:55.284Z,12.90
2022-10-13T22:01:28.148Z,12.93
2022-10-13T22:04:02.634Z,14.88
2022-10-13T22:06:34.665Z,12.73
2022-10-13T22:09:10.468Z,12.02
2022-10-13T22:11:44.624Z,14.35
2022-10-13T22:14:16.826Z,15.02
2022-10-13T22:16:52.505Z,14.25
2022-10-13T22:19:23.471Z,13.55
2022-10-13T22:21:57.512Z,13.38
2022-10-13T22:24:31.811Z,14.00
2022-10-13T22:27:04.695Z,14.68
2022-10-13T22:29:38.715Z,14.75
2022-10-13T22:34:40.877Z,14.38
2022-10-13T22:37:09.369Z,15.60
2022-10-13T22:39:41.854Z,16.08
2022-10-13T22:42:14.008Z,16.23
2022-10-13T22:44:42.839Z,13.93
2022-10-13T22:47:12.122Z,17.25
2022-10-13T22:49:44.653Z,15.32
2022-10-13T22:52:14.333Z,15.38
2022-10-13T22:54:44.298Z,20.40
2022-10-13T22:57:14.570Z,13.40
2022-10-13T22:59:47.115Z,12.48
2022-10-13T23:02:21.542Z,12.25
2022-10-13T23:05:11.357Z,13.23
2022-10-13T23:07:39.087Z,12.95
2022-10-13T23:10:08.399Z,12.20
2022-10-13T23:12:44.531Z,12.80
2022-10-13T23:15:20.031Z,12.88
2022-10-13T23:17:51.645Z,12.65
2022-10-13T23:20:20.337Z,12.88
2022-10-13T23:22:52.483Z,17.73
2022-10-13T23:25:24.385Z,12.48
2022-10-13T23:27:55.924Z,15.23
2022-10-13T23:30:25.707Z,12.70
2022-10-13T23:32:56.214Z,14.48
2022-10-13T23:35:27.617Z,12.63
2022-10-13T23:37:59.688Z,15.82
2022-10-13T23:40:34.140Z,13.30
2022-10-13T23:43:07.879Z,12.15
2022-10-13T23:45:42.814Z,12.35
2022-10-13T23:48:16.459Z,13.75
2022-10-13T23:51:12.695Z,13.23
2022-10-13T23:53:47.380Z,14.20
2022-10-13T23:56:25.494Z,14.77
2022-10-13T23:59:00.480Z,11.30
